sensor_id;sensor_type;location;lat;lon;timestamp;pressure;altitude;pressure_sealevel;temperature;humidity
54172;BME280;40076;52.354;4.970;2022-11-20T00:00:53;101437.88;;;0.94;77.59
54172;BME280;40076;52.354;4.970;2022-11-20T00:03:18;101434.34;;;0.88;77.77
54172;BME280;40076;52.354;4.970;2022-11-20T00:05:44;101436.41;;;0.86;77.97
54172;BME280;40076;52.354;4.970;2022-11-20T00:08:10;101436.66;;;0.85;78.10
54172;BME280;40076;52.354;4.970;2022-11-20T00:10:37;101435.28;;;0.82;78.17
54172;BME280;40076;52.354;4.970;2022-11-20T00:13:02;101434.50;;;0.82;78.31
54172;BME280;40076;52.354;4.970;2022-11-20T00:15:28;101440.84;;;0.81;78.53
54172;BME280;40076;52.354;4.970;2022-11-20T00:17:53;101438.19;;;0.81;78.70
54172;BME280;40076;52.354;4.970;2022-11-20T00:20:18;101437.38;;;0.80;78.52
54172;BME280;40076;52.354;4.970;2022-11-20T00:22:44;101436.56;;;0.80;78.65
54172;BME280;40076;52.354;4.970;2022-11-20T00:25:09;101433.91;;;0.80;78.69
54172;BME280;40076;52.354;4.970;2022-11-20T00:27:35;101432.06;;;0.80;78.77
54172;BME280;40076;52.354;4.970;2022-11-20T00:30:00;101427.78;;;0.79;78.60
54172;BME280;40076;52.354;4.970;2022-11-20T00:32:26;101439.22;;;0.80;78.69
54172;BME280;40076;52.354;4.970;2022-11-20T00:34:51;101433.34;;;0.77;78.79
54172;BME280;40076;52.354;4.970;2022-11-20T00:37:16;101425.63;;;0.76;78.71
54172;BME280;40076;52.354;4.970;2022-11-20T00:39:42;101410.13;;;0.73;78.78
54172;BME280;40076;52.354;4.970;2022-11-20T00:42:07;101413.81;;;0.72;78.83
54172;BME280;40076;52.354;4.970;2022-11-20T00:44:32;101410.03;;;0.68;78.65
54172;BME280;40076;52.354;4.970;2022-11-20T00:46:58;101415.59;;;0.66;78.88
54172;BME280;40076;52.354;4.970;2022-11-20T00:49:23;101414.78;;;0.66;78.92
54172;BME280;40076;52.354;4.970;2022-11-20T00:51:48;101413.97;;;0.65;79.01
54172;BME280;40076;52.354;4.970;2022-11-20T00:54:14;101416.06;;;0.63;78.92
54172;BME280;40076;52.354;4.970;2022-11-20T00:56:39;101411.53;;;0.64;79.15
54172;BME280;40076;52.354;4.970;2022-11-20T00:59:05;101412.59;;;0.63;78.97
54172;BME280;40076;52.354;4.970;2022-11-20T01:01:30;101408.31;;;0.62;78.95
54172;BME280;40076;52.354;4.970;2022-11-20T01:03:58;101409.63;;;0.59;78.83
54172;BME280;40076;52.354;4.970;2022-11-20T01:06:29;101414.34;;;0.57;78.71
54172;BME280;40076;52.354;4.970;2022-11-20T01:08:57;101407.91;;;0.53;78.89
54172;BME280;40076;52.354;4.970;2022-11-20T01:11:25;101416.34;;;0.50;78.89
54172;BME280;40076;52.354;4.970;2022-11-20T01:13:52;101418.94;;;0.45;78.80
54172;BME280;40076;52.354;4.970;2022-11-20T01:16:24;101427.38;;;0.42;79.02
54172;BME280;40076;52.354;4.970;2022-11-20T01:18:51;101415.59;;;0.38;79.15
54172;BME280;40076;52.354;4.970;2022-11-20T01:21:38;101413.19;;;0.36;79.26
54172;BME280;40076;52.354;4.970;2022-11-20T01:24:05;101417.09;;;0.34;79.51
54172;BME280;40076;52.354;4.970;2022-11-20T01:26:34;101407.50;;;0.33;79.72
54172;BME280;40076;52.354;4.970;2022-11-20T01:29:00;101404.63;;;0.34;79.97
54172;BME280;40076;52.354;4.970;2022-11-20T01:31:31;101396.06;;;0.32;79.80
54172;BME280;40076;52.354;4.970;2022-11-20T01:33:59;101386.47;;;0.31;79.74
54172;BME280;40076;52.354;4.970;2022-11-20T01:36:27;101389.13;;;0.31;79.82
54172;BME280;40076;52.354;4.970;2022-11-20T01:38:54;101393.91;;;0.29;79.71
54172;BME280;40076;52.354;4.970;2022-11-20T01:41:20;101394.94;;;0.28;79.90
54172;BME280;40076;52.354;4.970;2022-11-20T01:44:05;101401.53;;;0.26;79.98
54172;BME280;40076;52.354;4.970;2022-11-20T01:46:36;101394.59;;;0.25;80.29
54172;BME280;40076;52.354;4.970;2022-11-20T01:49:09;101383.97;;;0.25;80.14
54172;BME280;40076;52.354;4.970;2022-11-20T01:51:43;101383.97;;;0.25;79.87
54172;BME280;40076;52.354;4.970;2022-11-20T01:54:14;101382.34;;;0.24;80.07
54172;BME280;40076;52.354;4.970;2022-11-20T01:56:44;101388.97;;;0.21;80.25
54172;BME280;40076;52.354;4.970;2022-11-20T01:59:13;101388.03;;;0.16;80.09
54172;BME280;40076;52.354;4.970;2022-11-20T02:01:43;101383.22;;;0.13;80.30
54172;BME280;40076;52.354;4.970;2022-11-20T02:04:09;101374.66;;;0.11;80.39
54172;BME280;40076;52.354;4.970;2022-11-20T02:06:39;101372.81;;;0.11;80.74
54172;BME280;40076;52.354;4.970;2022-11-20T02:09:06;101367.72;;;0.10;80.74
54172;BME280;40076;52.354;4.970;2022-11-20T02:11:31;101362.63;;;0.08;80.80
54172;BME280;40076;52.354;4.970;2022-11-20T02:13:56;101356.78;;;0.06;81.00
54172;BME280;40076;52.354;4.970;2022-11-20T02:16:28;101365.56;;;0.07;80.97
54172;BME280;40076;52.354;4.970;2022-11-20T02:18:57;101363.94;;;0.06;80.93
54172;BME280;40076;52.354;4.970;2022-11-20T02:24:15;101373.53;;;0.07;80.96
54172;BME280;40076;52.354;4.970;2022-11-20T02:29:16;101368.44;;;0.05;80.97
54172;BME280;40076;52.354;4.970;2022-11-20T02:31:43;101367.06;;;0.03;80.89
54172;BME280;40076;52.354;4.970;2022-11-20T02:34:11;101363.81;;;0.00;81.23
54172;BME280;40076;52.354;4.970;2022-11-20T02:36:38;101364.88;;;-0.01;81.43
54172;BME280;40076;52.354;4.970;2022-11-20T02:39:07;101365.94;;;-0.02;81.19
54172;BME280;40076;52.354;4.970;2022-11-20T02:41:36;101360.63;;;-0.02;81.35
54172;BME280;40076;52.354;4.970;2022-11-20T02:44:02;101359.56;;;-0.01;81.12
54172;BME280;40076;52.354;4.970;2022-11-20T02:46:28;101366.75;;;-0.01;81.41
54172;BME280;40076;52.354;4.970;2022-11-20T02:48:54;101363.50;;;-0.03;81.36
54172;BME280;40076;52.354;4.970;2022-11-20T02:51:19;101359.00;;;-0.03;81.42
54172;BME280;40076;52.354;4.970;2022-11-20T02:53:44;101359.00;;;-0.03;81.39
54172;BME280;40076;52.354;4.970;2022-11-20T02:56:10;101357.38;;;-0.04;81.39
54172;BME280;40076;52.354;4.970;2022-11-20T02:58:35;101351.47;;;-0.06;81.25
54172;BME280;40076;52.354;4.970;2022-11-20T03:01:00;101345.38;;;-0.06;81.25
54172;BME280;40076;52.354;4.970;2022-11-20T03:03:26;101349.88;;;-0.07;81.52
54172;BME280;40076;52.354;4.970;2022-11-20T03:05:51;101349.06;;;-0.07;81.51
54172;BME280;40076;52.354;4.970;2022-11-20T03:08:16;101339.25;;;-0.07;81.66
54172;BME280;40076;52.354;4.970;2022-11-20T03:10:42;101338.19;;;-0.06;81.58
54172;BME280;40076;52.354;4.970;2022-11-20T03:13:07;101333.69;;;-0.05;81.76
54172;BME280;40076;52.354;4.970;2022-11-20T03:15:32;101327.34;;;-0.04;81.84
54172;BME280;40076;52.354;4.970;2022-11-20T03:17:58;101325.28;;;-0.02;82.03
54172;BME280;40076;52.354;4.970;2022-11-20T03:20:23;101330.59;;;-0.02;82.11
54172;BME280;40076;52.354;4.970;2022-11-20T03:22:48;101321.81;;;-0.03;82.07
54172;BME280;40076;52.354;4.970;2022-11-20T03:25:14;101326.06;;;-0.02;81.82
54172;BME280;40076;52.354;4.970;2022-11-20T03:27:39;101322.84;;;-0.04;81.84
54172;BME280;40076;52.354;4.970;2022-11-20T03:30:08;101319.59;;;-0.06;81.81
54172;BME280;40076;52.354;4.970;2022-11-20T03:32:34;101312.69;;;-0.07;82.08
54172;BME280;40076;52.354;4.970;2022-11-20T03:34:59;101316.13;;;-0.06;82.13
54172;BME280;40076;52.354;4.970;2022-11-20T03:37:25;101313.47;;;-0.06;82.16
54172;BME280;40076;52.354;4.970;2022-11-20T03:39:51;101314.28;;;-0.06;82.29
54172;BME280;40076;52.354;4.970;2022-11-20T03:42:16;101300.19;;;-0.06;82.39
54172;BME280;40076;52.354;4.970;2022-11-20T03:45:01;101307.34;;;-0.07;82.18
54172;BME280;40076;52.354;4.970;2022-11-20T03:47:26;101308.41;;;-0.08;82.08
54172;BME280;40076;52.354;4.970;2022-11-20T03:49:51;101303.09;;;-0.08;82.10
54172;BME280;40076;52.354;4.970;2022-11-20T03:52:17;101304.16;;;-0.09;82.22
54172;BME280;40076;52.354;4.970;2022-11-20T03:54:42;101311.88;;;-0.07;82.46
54172;BME280;40076;52.354;4.970;2022-11-20T03:57:07;101303.91;;;-0.07;82.53
54172;BME280;40076;52.354;4.970;2022-11-20T03:59:33;101301.25;;;-0.07;82.47
54172;BME280;40076;52.354;4.970;2022-11-20T04:01:58;101297.78;;;-0.08;82.40
54172;BME280;40076;52.354;4.970;2022-11-20T04:04:23;101289.03;;;-0.08;82.42
54172;BME280;40076;52.354;4.970;2022-11-20T04:06:49;101287.41;;;-0.09;82.39
54172;BME280;40076;52.354;4.970;2022-11-20T04:09:14;101280.47;;;-0.10;82.50
54172;BME280;40076;52.354;4.970;2022-11-20T04:11:40;101277.00;;;-0.11;82.54
54172;BME280;40076;52.354;4.970;2022-11-20T04:14:11;101269.06;;;-0.11;82.46
54172;BME280;40076;52.354;4.970;2022-11-20T04:16:37;101262.94;;;-0.11;82.55
54172;BME280;40076;52.354;4.970;2022-11-20T04:19:06;101271.72;;;-0.11;82.69
54172;BME280;40076;52.354;4.970;2022-11-20T04:21:32;101267.19;;;-0.10;82.71
54172;BME280;40076;52.354;4.970;2022-11-20T04:23:57;101268.25;;;-0.11;82.61
54172;BME280;40076;52.354;4.970;2022-11-20T04:26:25;101268.47;;;-0.13;82.59
54172;BME280;40076;52.354;4.970;2022-11-20T04:28:51;101266.84;;;-0.14;82.69
54172;BME280;40076;52.354;4.970;2022-11-20T04:31:18;101270.81;;;-0.16;82.59
54172;BME280;40076;52.354;4.970;2022-11-20T04:33:46;101272.09;;;-0.19;82.55
54172;BME280;40076;52.354;4.970;2022-11-20T04:36:14;101269.66;;;-0.20;82.62
54172;BME280;40076;52.354;4.970;2022-11-20T04:38:40;101281.31;;;-0.21;82.63
54172;BME280;40076;52.354;4.970;2022-11-20T04:41:08;101273.59;;;-0.23;82.58
54172;BME280;40076;52.354;4.970;2022-11-20T04:43:34;101265.88;;;-0.24;82.56
54172;BME280;40076;52.354;4.970;2022-11-20T04:46:00;101265.28;;;-0.26;82.61
54172;BME280;40076;52.354;4.970;2022-11-20T04:48:26;101260.22;;;-0.28;82.68
54172;BME280;40076;52.354;4.970;2022-11-20T04:50:53;101268.19;;;-0.28;82.95
54172;BME280;40076;52.354;4.970;2022-11-20T04:53:19;101262.28;;;-0.30;83.03
54172;BME280;40076;52.354;4.970;2022-11-20T04:55:45;101265.75;;;-0.29;83.13
54172;BME280;40076;52.354;4.970;2022-11-20T04:58:11;101257.47;;;-0.33;82.90
54172;BME280;40076;52.354;4.970;2022-11-20T05:00:36;101246.50;;;-0.36;82.97
54172;BME280;40076;52.354;4.970;2022-11-20T05:03:02;101241.09;;;-0.42;82.96
54172;BME280;40076;52.354;4.970;2022-11-20T05:05:27;101239.72;;;-0.44;83.30
54172;BME280;40076;52.354;4.970;2022-11-20T05:07:53;101237.06;;;-0.44;83.54
54172;BME280;40076;52.354;4.970;2022-11-20T05:10:20;101241.56;;;-0.45;83.68
54172;BME280;40076;52.354;4.970;2022-11-20T05:12:45;101238.09;;;-0.45;83.75
54172;BME280;40076;52.354;4.970;2022-11-20T05:15:11;101229.31;;;-0.46;83.77
54172;BME280;40076;52.354;4.970;2022-11-20T05:17:36;101233.84;;;-0.46;83.77
54172;BME280;40076;52.354;4.970;2022-11-20T05:20:01;101222.44;;;-0.47;84.06
54172;BME280;40076;52.354;4.970;2022-11-20T05:22:27;101226.13;;;-0.48;83.87
54172;BME280;40076;52.354;4.970;2022-11-20T05:24:52;101230.63;;;-0.48;83.82
54172;BME280;40076;52.354;4.970;2022-11-20T05:27:17;101232.47;;;-0.49;83.91
54172;BME280;40076;52.354;4.970;2022-11-20T05:29:43;101226.81;;;-0.52;83.91
54172;BME280;40076;52.354;4.970;2022-11-20T05:32:08;101232.13;;;-0.52;83.91
54172;BME280;40076;52.354;4.970;2022-11-20T05:34:35;101234.22;;;-0.54;84.05
54172;BME280;40076;52.354;4.970;2022-11-20T05:37:00;101233.66;;;-0.56;84.29
54172;BME280;40076;52.354;4.970;2022-11-20T05:39:25;101245.88;;;-0.55;84.45
54172;BME280;40076;52.354;4.970;2022-11-20T05:41:51;101243.22;;;-0.55;84.43
54172;BME280;40076;52.354;4.970;2022-11-20T05:44:36;101242.66;;;-0.57;84.39
54172;BME280;40076;52.354;4.970;2022-11-20T05:47:01;101240.44;;;-0.60;84.23
54172;BME280;40076;52.354;4.970;2022-11-20T05:49:26;101240.72;;;-0.62;84.36
54172;BME280;40076;52.354;4.970;2022-11-20T05:51:52;101252.59;;;-0.64;84.44
54172;BME280;40076;52.354;4.970;2022-11-20T05:54:17;101261.34;;;-0.64;84.64
54172;BME280;40076;52.354;4.970;2022-11-20T05:56:42;101263.19;;;-0.64;84.58
54172;BME280;40076;52.354;4.970;2022-11-20T05:59:08;101260.56;;;-0.64;84.71
54172;BME280;40076;52.354;4.970;2022-11-20T06:01:33;101259.97;;;-0.66;84.73
54172;BME280;40076;52.354;4.970;2022-11-20T06:03:58;101257.31;;;-0.66;84.75
54172;BME280;40076;52.354;4.970;2022-11-20T06:06:24;101253.03;;;-0.67;84.92
54172;BME280;40076;52.354;4.970;2022-11-20T06:08:51;101244.28;;;-0.68;84.78
54172;BME280;40076;52.354;4.970;2022-11-20T06:11:17;101254.88;;;-0.68;84.90
54172;BME280;40076;52.354;4.970;2022-11-20T06:13:42;101243.47;;;-0.68;84.94
54172;BME280;40076;52.354;4.970;2022-11-20T06:16:09;101240.03;;;-0.69;85.01
54172;BME280;40076;52.354;4.970;2022-11-20T06:18:34;101241.63;;;-0.68;85.02
54172;BME280;40076;52.354;4.970;2022-11-20T06:21:02;101236.31;;;-0.68;85.16
54172;BME280;40076;52.354;4.970;2022-11-20T06:23:29;101253.03;;;-0.67;85.39
54172;BME280;40076;52.354;4.970;2022-11-20T06:25:55;101252.22;;;-0.68;85.26
54172;BME280;40076;52.354;4.970;2022-11-20T06:28:20;101245.09;;;-0.67;85.32
54172;BME280;40076;52.354;4.970;2022-11-20T06:30:47;101242.44;;;-0.67;85.51
54172;BME280;40076;52.354;4.970;2022-11-20T06:33:12;101248.00;;;-0.69;85.39
54172;BME280;40076;52.354;4.970;2022-11-20T06:35:37;101241.06;;;-0.70;85.48
54172;BME280;40076;52.354;4.970;2022-11-20T06:38:03;101240.25;;;-0.70;85.57
54172;BME280;40076;52.354;4.970;2022-11-20T06:40:28;101236.00;;;-0.71;85.64
54172;BME280;40076;52.354;4.970;2022-11-20T06:42:54;101244.75;;;-0.71;85.82
54172;BME280;40076;52.354;4.970;2022-11-20T06:45:20;101232.53;;;-0.72;85.76
54172;BME280;40076;52.354;4.970;2022-11-20T06:47:45;101226.19;;;-0.71;86.02
54172;BME280;40076;52.354;4.970;2022-11-20T06:50:10;101221.09;;;-0.72;86.13
54172;BME280;40076;52.354;4.970;2022-11-20T06:52:35;101225.03;;;-0.75;86.21
54172;BME280;40076;52.354;4.970;2022-11-20T06:55:01;101225.03;;;-0.75;86.61
54172;BME280;40076;52.354;4.970;2022-11-20T06:57:26;101223.41;;;-0.76;86.64
54172;BME280;40076;52.354;4.970;2022-11-20T06:59:51;101217.06;;;-0.75;86.75
54172;BME280;40076;52.354;4.970;2022-11-20T07:02:17;101210.13;;;-0.76;86.96
54172;BME280;40076;52.354;4.970;2022-11-20T07:04:42;101217.06;;;-0.75;87.04
54172;BME280;40076;52.354;4.970;2022-11-20T07:07:08;101216.25;;;-0.75;87.42
54172;BME280;40076;52.354;4.970;2022-11-20T07:09:33;101210.41;;;-0.77;87.23
54172;BME280;40076;52.354;4.970;2022-11-20T07:11:59;101206.72;;;-0.76;87.58
54172;BME280;40076;52.354;4.970;2022-11-20T07:14:24;101201.63;;;-0.78;87.70
54172;BME280;40076;52.354;4.970;2022-11-20T07:16:49;101198.16;;;-0.79;87.91
54172;BME280;40076;52.354;4.970;2022-11-20T07:19:14;101200.25;;;-0.81;88.11
54172;BME280;40076;52.354;4.970;2022-11-20T07:21:40;101198.16;;;-0.79;88.23
54172;BME280;40076;52.354;4.970;2022-11-20T07:24:07;101196.78;;;-0.81;88.98
54172;BME280;40076;52.354;4.970;2022-11-20T07:26:32;101202.91;;;-0.81;89.01
54172;BME280;40076;52.354;4.970;2022-11-20T07:28:57;101206.59;;;-0.82;89.74
54172;BME280;40076;52.354;4.970;2022-11-20T07:31:26;101204.97;;;-0.83;89.78
54172;BME280;40076;52.354;4.970;2022-11-20T07:33:51;101208.44;;;-0.82;90.17
54172;BME280;40076;52.354;4.970;2022-11-20T07:36:16;101213.50;;;-0.81;90.60
54172;BME280;40076;52.354;4.970;2022-11-20T07:38:41;101213.50;;;-0.81;90.77
54172;BME280;40076;52.354;4.970;2022-11-20T07:41:07;101210.28;;;-0.83;90.95
54172;BME280;40076;52.354;4.970;2022-11-20T07:43:32;101206.81;;;-0.83;91.49
54172;BME280;40076;52.354;4.970;2022-11-20T07:45:58;101211.66;;;-0.80;91.97
54172;BME280;40076;52.354;4.970;2022-11-20T07:48:24;101209.81;;;-0.80;92.34
54172;BME280;40076;52.354;4.970;2022-11-20T07:50:53;101209.81;;;-0.80;92.55
54172;BME280;40076;52.354;4.970;2022-11-20T07:53:18;101200.59;;;-0.77;92.91
54172;BME280;40076;52.354;4.970;2022-11-20T07:55:46;101201.41;;;-0.76;93.32
54172;BME280;40076;52.354;4.970;2022-11-20T07:58:11;101197.13;;;-0.77;93.82
54172;BME280;40076;52.354;4.970;2022-11-20T08:00:36;101187.06;;;-0.75;93.99
54172;BME280;40076;52.354;4.970;2022-11-20T08:03:05;101195.84;;;-0.75;94.44
54172;BME280;40076;52.354;4.970;2022-11-20T08:05:30;101182.34;;;-0.73;94.71
54172;BME280;40076;52.354;4.970;2022-11-20T08:07:56;101181.06;;;-0.71;95.26
54172;BME280;40076;52.354;4.970;2022-11-20T08:10:21;101187.75;;;-0.68;95.44
54172;BME280;40076;52.354;4.970;2022-11-20T08:12:48;101185.88;;;-0.68;96.05
54172;BME280;40076;52.354;4.970;2022-11-20T08:15:32;101187.28;;;-0.65;96.09
54172;BME280;40076;52.354;4.970;2022-11-20T08:20:30;101185.66;;;-0.66;96.47
54172;BME280;40076;52.354;4.970;2022-11-20T08:23:00;101182.44;;;-0.68;96.46
54172;BME280;40076;52.354;4.970;2022-11-20T08:25:27;101175.53;;;-0.69;96.94
54172;BME280;40076;52.354;4.970;2022-11-20T08:27:52;101181.38;;;-0.67;96.63
54172;BME280;40076;52.354;4.970;2022-11-20T08:30:17;101184.03;;;-0.67;97.12
54172;BME280;40076;52.354;4.970;2022-11-20T08:32:43;101185.44;;;-0.65;97.01
54172;BME280;40076;52.354;4.970;2022-11-20T08:35:08;101191.31;;;-0.63;97.23
54172;BME280;40076;52.354;4.970;2022-11-20T08:37:33;101191.88;;;-0.61;97.52
54172;BME280;40076;52.354;4.970;2022-11-20T08:39:59;101188.97;;;-0.59;97.70
54172;BME280;40076;52.354;4.970;2022-11-20T08:42:24;101192.78;;;-0.55;97.78
54172;BME280;40076;52.354;4.970;2022-11-20T08:44:49;101188.84;;;-0.53;97.84
54172;BME280;40076;52.354;4.970;2022-11-20T08:47:14;101192.88;;;-0.50;97.92
54172;BME280;40076;52.354;4.970;2022-11-20T08:49:40;101195.06;;;-0.47;98.00
54172;BME280;40076;52.354;4.970;2022-11-20T08:52:05;101193.22;;;-0.47;98.24
54172;BME280;40076;52.354;4.970;2022-11-20T08:54:30;101195.41;;;-0.44;97.95
54172;BME280;40076;52.354;4.970;2022-11-20T08:56:55;101196.19;;;-0.43;98.14
54172;BME280;40076;52.354;4.970;2022-11-20T08:59:21;101194.59;;;-0.44;98.46
54172;BME280;40076;52.354;4.970;2022-11-20T09:01:46;101182.94;;;-0.43;98.30
54172;BME280;40076;52.354;4.970;2022-11-20T09:04:11;101183.28;;;-0.40;98.81
54172;BME280;40076;52.354;4.970;2022-11-20T09:06:39;101180.94;;;-0.36;98.69
54172;BME280;40076;52.354;4.970;2022-11-20T09:09:04;101174.34;;;-0.33;99.13
54172;BME280;40076;52.354;4.970;2022-11-20T09:11:30;101172.00;;;-0.30;99.06
54172;BME280;40076;52.354;4.970;2022-11-20T09:13:56;101168.88;;;-0.27;99.27
54172;BME280;40076;52.354;4.970;2022-11-20T09:16:21;101163.34;;;-0.25;99.47
54172;BME280;40076;52.354;4.970;2022-11-20T09:18:46;101162.03;;;-0.23;99.70
54172;BME280;40076;52.354;4.970;2022-11-20T09:21:14;101154.41;;;-0.19;99.91
54172;BME280;40076;52.354;4.970;2022-11-20T09:23:40;101151.53;;;-0.18;100.00
54172;BME280;40076;52.354;4.970;2022-11-20T09:26:13;101147.34;;;-0.14;100.00
54172;BME280;40076;52.354;4.970;2022-11-20T09:28:39;101155.06;;;-0.12;100.00
54172;BME280;40076;52.354;4.970;2022-11-20T09:31:09;101154.25;;;-0.13;100.00
54172;BME280;40076;52.354;4.970;2022-11-20T09:33:40;101142.59;;;-0.12;100.00
54172;BME280;40076;52.354;4.970;2022-11-20T09:36:06;101129.66;;;-0.08;100.00
54172;BME280;40076;52.354;4.970;2022-11-20T09:38:31;101125.69;;;-0.06;100.00
54172;BME280;40076;52.354;4.970;2022-11-20T09:40:58;101122.56;;;-0.03;100.00
54172;BME280;40076;52.354;4.970;2022-11-20T09:43:37;101119.41;;;0.00;100.00
54172;BME280;40076;52.354;4.970;2022-11-20T09:46:16;101127.72;;;0.04;100.00
54172;BME280;40076;52.354;4.970;2022-11-20T09:51:36;101119.56;;;0.11;100.00
54172;BME280;40076;52.354;4.970;2022-11-20T09:56:34;101114.91;;;0.18;100.00
54172;BME280;40076;52.354;4.970;2022-11-20T09:59:05;101116.28;;;0.20;100.00
54172;BME280;40076;52.354;4.970;2022-11-20T10:01:34;101106.75;;;0.24;100.00
54172;BME280;40076;52.354;4.970;2022-11-20T10:04:04;101109.50;;;0.29;100.00
54172;BME280;40076;52.354;4.970;2022-11-20T10:06:32;101107.16;;;0.33;100.00
54172;BME280;40076;52.354;4.970;2022-11-20T10:11:51;101098.28;;;0.44;100.00
54172;BME280;40076;52.354;4.970;2022-11-20T10:17:13;101085.38;;;0.53;100.00
54172;BME280;40076;52.354;4.970;2022-11-20T10:19:51;101067.88;;;0.57;100.00
54172;BME280;40076;52.354;4.970;2022-11-20T10:25:10;101061.06;;;0.66;100.00
54172;BME280;40076;52.354;4.970;2022-11-20T10:30:14;101059.03;;;0.73;100.00
54172;BME280;40076;52.354;4.970;2022-11-20T10:32:43;101054.00;;;0.76;100.00
54172;BME280;40076;52.354;4.970;2022-11-20T10:35:32;101047.97;;;0.81;100.00
54172;BME280;40076;52.354;4.970;2022-11-20T10:38:21;101044.25;;;0.82;100.00
54172;BME280;40076;52.354;4.970;2022-11-20T10:40:57;101041.63;;;0.87;100.00
54172;BME280;40076;52.354;4.970;2022-11-20T10:43:44;101034.22;;;0.89;100.00
54172;BME280;40076;52.354;4.970;2022-11-20T10:46:20;101037.97;;;0.93;100.00
54172;BME280;40076;52.354;4.970;2022-11-20T10:48:47;101021.75;;;0.95;100.00
54172;BME280;40076;52.354;4.970;2022-11-20T10:57:25;101003.78;;;1.07;100.00
54172;BME280;40076;52.354;4.970;2022-11-20T11:00:12;100995.31;;;1.10;100.00
54172;BME280;40076;52.354;4.970;2022-11-20T11:02:44;100993.75;;;1.14;100.00
54172;BME280;40076;52.354;4.970;2022-11-20T11:07:56;100992.75;;;1.20;100.00
54172;BME280;40076;52.354;4.970;2022-11-20T11:10:34;100986.91;;;1.23;100.00
54172;BME280;40076;52.354;4.970;2022-11-20T11:13:01;100987.22;;;1.27;100.00
54172;BME280;40076;52.354;4.970;2022-11-20T11:15:38;100986.16;;;1.28;100.00
54172;BME280;40076;52.354;4.970;2022-11-20T11:18:04;100972.31;;;1.31;100.00
54172;BME280;40076;52.354;4.970;2022-11-20T11:20:30;100972.09;;;1.32;100.00
54172;BME280;40076;52.354;4.970;2022-11-20T11:22:58;100969.97;;;1.34;100.00
54172;BME280;40076;52.354;4.970;2022-11-20T11:25:35;100966.00;;;1.37;100.00
54172;BME280;40076;52.354;4.970;2022-11-20T11:28:24;100971.88;;;1.39;100.00
54172;BME280;40076;52.354;4.970;2022-11-20T11:30:51;100970.31;;;1.43;100.00
54172;BME280;40076;52.354;4.970;2022-11-20T11:33:21;100967.13;;;1.46;100.00
54172;BME280;40076;52.354;4.970;2022-11-20T11:35:53;100955.97;;;1.49;100.00
54172;BME280;40076;52.354;4.970;2022-11-20T11:38:29;100948.53;;;1.51;100.00
54172;BME280;40076;52.354;4.970;2022-11-20T11:40:58;100937.63;;;1.52;100.00
54172;BME280;40076;52.354;4.970;2022-11-20T11:43:26;100932.03;;;1.54;100.00
54172;BME280;40076;52.354;4.970;2022-11-20T11:46:23;100926.22;;;1.57;100.00
54172;BME280;40076;52.354;4.970;2022-11-20T11:54:20;100905.97;;;1.61;100.00
54172;BME280;40076;52.354;4.970;2022-11-20T11:56:48;100900.41;;;1.63;100.00
54172;BME280;40076;52.354;4.970;2022-11-20T11:59:27;100888.69;;;1.64;100.00
54172;BME280;40076;52.354;4.970;2022-11-20T12:02:00;100889.25;;;1.66;100.00
54172;BME280;40076;52.354;4.970;2022-11-20T12:04:42;100896.69;;;1.69;100.00
54172;BME280;40076;52.354;4.970;2022-11-20T12:07:15;100911.63;;;1.70;100.00
54172;BME280;40076;52.354;4.970;2022-11-20T12:09:49;100906.06;;;1.71;100.00
54172;BME280;40076;52.354;4.970;2022-11-20T12:12:20;100892.47;;;1.73;100.00
54172;BME280;40076;52.354;4.970;2022-11-20T12:14:48;100890.38;;;1.75;100.00
54172;BME280;40076;52.354;4.970;2022-11-20T12:17:16;100887.41;;;1.76;100.00
54172;BME280;40076;52.354;4.970;2022-11-20T12:19:43;100878.38;;;1.77;100.00
54172;BME280;40076;52.354;4.970;2022-11-20T12:22:36;100867.47;;;1.79;100.00
54172;BME280;40076;52.354;4.970;2022-11-20T12:25:11;100857.34;;;1.81;100.00
54172;BME280;40076;52.354;4.970;2022-11-20T12:30:23;100845.91;;;1.85;100.00
54172;BME280;40076;52.354;4.970;2022-11-20T12:35:39;100838.16;;;1.84;100.00
54172;BME280;40076;52.354;4.970;2022-11-20T12:43:27;100832.88;;;1.89;100.00
54172;BME280;40076;52.354;4.970;2022-11-20T12:48:52;100812.63;;;1.93;100.00
54172;BME280;40076;52.354;4.970;2022-11-20T12:51:34;100809.44;;;1.96;100.00
54172;BME280;40076;52.354;4.970;2022-11-20T12:57:09;100786.28;;;2.02;100.00
54172;BME280;40076;52.354;4.970;2022-11-20T13:02:47;100775.91;;;2.05;100.00
54172;BME280;40076;52.354;4.970;2022-11-20T13:08:34;100759.91;;;2.10;100.00
54172;BME280;40076;52.354;4.970;2022-11-20T13:11:32;100758.84;;;2.11;100.00
54172;BME280;40076;52.354;4.970;2022-11-20T13:14:13;100783.09;;;2.15;100.00
54172;BME280;40076;52.354;4.970;2022-11-20T13:19:13;100774.31;;;2.19;100.00
54172;BME280;40076;52.354;4.970;2022-11-20T13:21:45;100771.41;;;2.21;100.00
54172;BME280;40076;52.354;4.970;2022-11-20T13:24:22;100786.06;;;2.23;100.00
54172;BME280;40076;52.354;4.970;2022-11-20T13:27:01;100771.66;;;2.24;100.00
54172;BME280;40076;52.354;4.970;2022-11-20T13:29:27;100761.00;;;2.24;100.00
54172;BME280;40076;52.354;4.970;2022-11-20T13:32:03;100768.47;;;2.27;100.00
54172;BME280;40076;52.354;4.970;2022-11-20T13:34:29;100761.78;;;2.30;100.00
54172;BME280;40076;52.354;4.970;2022-11-20T13:36:57;100763.66;;;2.29;100.00
54172;BME280;40076;52.354;4.970;2022-11-20T13:39:30;100751.66;;;2.32;100.00
54172;BME280;40076;52.354;4.970;2022-11-20T13:41:58;100733.53;;;2.34;100.00
54172;BME280;40076;52.354;4.970;2022-11-20T13:44:29;100737.28;;;2.33;100.00
54172;BME280;40076;52.354;4.970;2022-11-20T13:46:54;100741.28;;;2.36;100.00
54172;BME280;40076;52.354;4.970;2022-11-20T13:49:38;100739.94;;;2.38;100.00
54172;BME280;40076;52.354;4.970;2022-11-20T13:55:12;100736.75;;;2.41;100.00
54172;BME280;40076;52.354;4.970;2022-11-20T14:00:30;100720.75;;;2.41;100.00
54172;BME280;40076;52.354;4.970;2022-11-20T14:03:20;100701.03;;;2.42;100.00
54172;BME280;40076;52.354;4.970;2022-11-20T14:05:54;100693.00;;;2.42;100.00
54172;BME280;40076;52.354;4.970;2022-11-20T14:08:33;100689.53;;;2.47;100.00